Time;durP1;ratioP1;P1;durP2;ratioP2;P2;SDS_P1;SDS_P2;PMS_P1;PMS_P2;Temp;Humidity;BMP_temperature;BMP_pressure;BME280_temperature;BME280_humidity;BME280_pressure;Samples;Min_cycle;Max_cycle;Signal;HPM_P1;HPM_P2
2021/06/29 00:08:57;;;;;;;5.40;3.70;;;21.50;99.90;;;;;;6736676;88;20234;-79
2021/06/29 00:18:57;;;;;;;5.75;3.55;;;21.30;99.90;;;;;;6736714;88;20201;-79
2021/06/29 00:28:58;;;;;;;5.05;3.97;;;21.20;99.90;;;;;;6734077;88;20921;-79
2021/06/29 00:38:58;;;;;;;5.50;3.70;;;21.10;99.90;;;;;;6733839;88;20185;-79
2021/06/29 00:49:20;;;;;;;7.05;4.00;;;21.00;99.90;;;;;;6711130;77;20296;-78
2021/06/29 00:59:20;;;;;;;5.70;3.95;;;20.90;99.90;;;;;;6721235;88;20207;-78
2021/06/29 01:09:21;;;;;;;4.45;4.00;;;20.80;99.90;;;;;;6724116;88;20190;-77
2021/06/29 01:19:31;;;;;;;5.55;3.80;;;20.70;99.90;;;;;;6725682;88;20240;-77
2021/06/29 01:30:59;;;;;;;5.57;2.97;;;20.70;99.90;;;;;;6722738;88;20267;-79
2021/06/29 01:40:07;;;;;;;3.72;3.10;;;20.70;99.90;;;;;;6726391;88;20194;-77
2021/06/29 01:50:15;;;;;;;4.80;3.08;;;20.70;99.90;;;;;;6725917;88;20229;-77
2021/06/29 02:00:17;;;;;;;5.25;3.55;;;20.80;99.90;;;;;;6728413;88;20202;-79
2021/06/29 02:10:18;;;;;;;5.85;4.00;;;20.80;99.90;;;;;;6728009;88;20221;-78
2021/06/29 02:20:18;;;;;;;4.93;3.83;;;20.60;99.90;;;;;;6726988;88;20641;-75
2021/06/29 02:30:19;;;;;;;6.30;4.03;;;20.20;99.90;;;;;;6725385;88;20185;-78
2021/06/29 02:40:19;;;;;;;5.17;3.80;;;20.30;99.90;;;;;;6726156;88;20498;-78
2021/06/29 02:50:20;;;;;;;10.00;4.37;;;20.10;99.90;;;;;;6728268;88;20211;-79
2021/06/29 03:00:21;;;;;;;5.10;3.90;;;20.00;99.90;;;;;;6726576;88;20197;-78
2021/06/29 03:10:22;;;;;;;7.22;4.20;;;20.00;99.90;;;;;;6723034;88;20268;-79
2021/06/29 03:20:22;;;;;;;5.95;3.78;;;19.80;99.90;;;;;;6730010;88;20220;-78
2021/06/29 03:30:23;;;;;;;4.30;3.20;;;19.80;99.90;;;;;;6727752;88;20213;-78
2021/06/29 03:40:23;;;;;;;5.12;3.30;;;19.50;99.90;;;;;;6726468;88;20182;-79
2021/06/29 03:50:25;;;;;;;6.28;3.58;;;19.80;99.90;;;;;;6733072;88;20215;-77
2021/06/29 04:00:26;;;;;;;8.02;3.30;;;19.60;99.90;;;;;;6723948;88;20194;-78
2021/06/29 04:10:27;;;;;;;6.00;3.40;;;19.60;99.90;;;;;;6727917;88;20186;-79
2021/06/29 04:20:27;;;;;;;5.20;3.10;;;19.60;99.90;;;;;;6731196;88;20783;-78
2021/06/29 04:30:28;;;;;;;3.92;3.10;;;19.90;99.90;;;;;;6726189;88;20533;-79
2021/06/29 04:40:29;;;;;;;5.73;3.10;;;20.00;99.90;;;;;;6726828;88;20220;-79
2021/06/29 04:50:29;;;;;;;5.07;3.33;;;20.00;99.90;;;;;;6726839;88;20507;-78
2021/06/29 05:00:30;;;;;;;6.20;3.33;;;20.10;99.90;;;;;;6724895;88;20633;-78
2021/06/29 05:10:30;;;;;;;7.05;3.20;;;20.20;99.90;;;;;;6734953;88;20336;-78
2021/06/29 05:20:31;;;;;;;4.32;3.15;;;20.20;99.90;;;;;;6723185;88;20732;-79
2021/06/29 05:30:32;;;;;;;5.93;3.25;;;20.30;99.90;;;;;;6718870;88;20218;-79
2021/06/29 05:40:32;;;;;;;4.68;2.80;;;20.50;99.90;;;;;;6726434;88;20185;-77
2021/06/29 05:50:33;;;;;;;5.22;2.95;;;20.50;99.90;;;;;;6728745;88;20189;-79
2021/06/29 06:00:33;;;;;;;4.00;2.67;;;20.60;99.90;;;;;;6726060;88;20899;-80
2021/06/29 06:10:34;;;;;;;3.70;2.37;;;20.70;99.90;;;;;;6736542;77;20265;-79
2021/06/29 06:20:35;;;;;;;3.77;2.10;;;20.70;99.90;;;;;;6669428;88;20210;-78
2021/06/29 06:30:39;;;;;;;2.75;1.80;;;20.80;99.90;;;;;;6686635;88;20253;-80
2021/06/29 06:40:39;;;;;;;3.43;1.80;;;21.20;99.90;;;;;;6658620;88;20188;-77
2021/06/29 07:01:44;;;;;;;3.72;1.95;;;21.60;99.90;;;;;;6658959;88;20308;-78
2021/06/29 07:11:45;;;;;;;5.65;1.85;;;21.90;99.90;;;;;;6658322;89;20184;-78
2021/06/29 07:21:46;;;;;;;4.40;2.00;;;22.20;99.90;;;;;;6658665;89;20200;-80
2021/06/29 07:31:47;;;;;;;3.72;2.20;;;22.40;99.90;;;;;;6665295;89;20212;-79
2021/06/29 07:41:48;;;;;;;5.35;2.37;;;22.30;99.90;;;;;;6664577;89;20230;-80
2021/06/29 07:51:48;;;;;;;3.57;1.60;;;22.10;99.90;;;;;;6663670;89;20839;-79
2021/06/29 08:01:49;;;;;;;4.10;1.50;;;22.10;99.90;;;;;;6658478;89;20946;-78
2021/06/29 08:11:49;;;;;;;2.58;1.35;;;22.30;99.90;;;;;;6742768;88;20177;-78
2021/06/29 08:21:50;;;;;;;2.07;1.30;;;23.70;99.90;;;;;;6743577;88;20210;-78
2021/06/29 08:31:50;;;;;;;1.95;1.00;;;23.20;99.90;;;;;;6740295;88;20514;-78
2021/06/29 08:41:51;;;;;;;1.98;1.08;;;23.80;99.90;;;;;;6744336;88;20262;-78
2021/06/29 08:51:52;;;;;;;1.60;1.00;;;24.10;99.90;;;;;;6745485;88;20266;-78
2021/06/29 09:01:52;;;;;;;2.10;0.90;;;24.60;99.90;;;;;;6746560;88;20297;-79
2021/06/29 09:11:55;;;;;;;1.50;0.90;;;24.30;99.90;;;;;;6745582;88;20219;-80
2021/06/29 09:21:55;;;;;;;1.58;0.90;;;24.50;99.90;;;;;;6747444;88;20188;-80
2021/06/29 09:31:57;;;;;;;1.35;1.02;;;25.30;99.90;;;;;;6745520;88;20208;-79
2021/06/29 09:42:03;;;;;;;2.28;1.00;;;25.40;99.90;;;;;;6745360;88;20664;-78
2021/06/29 09:52:05;;;;;;;2.33;1.02;;;25.70;99.90;;;;;;6746036;88;20198;-78
2021/06/29 10:02:07;;;;;;;2.25;1.35;;;25.80;99.90;;;;;;6748754;88;20221;-79
2021/06/29 10:12:07;;;;;;;2.43;1.30;;;26.60;99.90;;;;;;6744061;88;20192;-79
2021/06/29 10:22:10;;;;;;;2.58;1.33;;;28.40;97.80;;;;;;6748137;88;20705;-79
2021/06/29 10:32:13;;;;;;;2.05;1.10;;;29.60;95.60;;;;;;6730573;88;20205;-79
2021/06/29 10:42:18;;;;;;;2.62;1.15;;;29.20;95.20;;;;;;6731860;88;20319;-79
2021/06/29 10:52:30;;;;;;;1.98;1.00;;;28.60;95.10;;;;;;6735751;88;20201;-78
2021/06/29 11:02:35;;;;;;;2.42;1.50;;;28.90;95.30;;;;;;6747021;88;20182;-77
2021/06/29 11:12:49;;;;;;;2.58;1.42;;;30.40;93.10;;;;;;6735333;88;20189;-79
2021/06/29 11:23:01;;;;;;;2.10;1.55;;;30.30;91.30;;;;;;6728350;88;20203;-78
2021/06/29 11:33:31;;;;;;;2.05;1.40;;;30.40;89.70;;;;;;6728859;88;20216;-79
2021/06/29 11:43:31;;;;;;;4.57;1.50;;;29.90;90.90;;;;;;6723373;88;21032;-76
2021/06/29 11:53:37;;;;;;;2.03;1.30;;;31.80;88.80;;;;;;6726314;88;20223;-78
2021/06/29 12:03:38;;;;;;;6.18;1.87;;;31.30;84.90;;;;;;6729442;88;20225;-78
2021/06/29 12:13:39;;;;;;;3.25;1.40;;;33.20;83.80;;;;;;6738185;88;20201;-78
2021/06/29 12:23:44;;;;;;;5.15;1.87;;;31.70;81.20;;;;;;6744114;88;20222;-78
2021/06/29 12:33:47;;;;;;;5.00;1.98;;;30.90;83.10;;;;;;6730524;88;20193;-76
2021/06/29 12:43:58;;;;;;;3.05;1.90;;;31.10;86.00;;;;;;6728432;88;20227;-76
2021/06/29 12:54:01;;;;;;;2.90;1.77;;;31.20;85.00;;;;;;6725905;88;20269;-76
2021/06/29 13:04:08;;;;;;;2.33;1.42;;;32.10;82.50;;;;;;6723881;88;20724;-76
2021/06/29 13:14:11;;;;;;;6.40;1.80;;;31.30;80.30;;;;;;6719150;88;20226;-77
2021/06/29 13:24:12;;;;;;;3.92;1.80;;;30.30;82.70;;;;;;6712924;88;20202;-77
2021/06/29 13:34:24;;;;;;;3.12;1.90;;;29.70;82.00;;;;;;6716626;88;20241;-77
2021/06/29 13:44:26;;;;;;;6.45;2.00;;;29.30;85.10;;;;;;6718065;88;20201;-79
2021/06/29 13:54:26;;;;;;;3.50;2.20;;;29.50;85.30;;;;;;6715035;88;20216;-78
2021/06/29 14:04:28;;;;;;;2.67;1.90;;;29.00;85.40;;;;;;6720564;88;20363;-78
2021/06/29 14:14:28;;;;;;;3.05;2.20;;;28.30;86.80;;;;;;6719724;88;20181;-78
2021/06/29 14:24:29;;;;;;;5.67;2.90;;;28.00;87.40;;;;;;6719077;88;20745;-78
2021/06/29 14:34:30;;;;;;;3.30;2.60;;;27.60;89.10;;;;;;6724272;88;20231;-78
2021/06/29 14:44:30;;;;;;;3.87;2.50;;;27.10;89.00;;;;;;6723857;88;20170;-79
2021/06/29 14:54:32;;;;;;;6.90;2.67;;;26.60;90.00;;;;;;6739108;88;20216;-78
2021/06/29 15:04:32;;;;;;;4.25;3.20;;;26.40;91.40;;;;;;6724359;88;20259;-77
2021/06/29 15:14:33;;;;;;;3.80;3.00;;;25.90;94.00;;;;;;6728221;88;20341;-79
2021/06/29 15:24:34;;;;;;;5.32;3.20;;;24.90;99.60;;;;;;6728784;88;20582;-79
2021/06/29 15:34:35;;;;;;;3.50;0.77;;;23.70;99.90;;;;;;6726772;88;20194;-78
2021/06/29 15:44:35;;;;;;;1.10;0.60;;;20.50;99.90;;;;;;6718308;88;20185;-76
2021/06/29 15:54:36;;;;;;;2.87;0.80;;;17.90;99.90;;;;;;6729278;88;20252;-75
2021/06/29 16:04:37;;;;;;;2.25;0.82;;;17.10;99.90;;;;;;6722224;88;20283;-74
2021/06/29 16:14:38;;;;;;;1.65;0.88;;;16.70;99.90;;;;;;6719488;88;20204;-76
2021/06/29 16:24:38;;;;;;;4.75;1.30;;;16.40;99.90;;;;;;6738559;88;20857;-76
2021/06/29 16:34:39;;;;;;;3.45;1.30;;;16.20;99.90;;;;;;6720925;88;20223;-76
2021/06/29 16:44:39;;;;;;;3.90;1.85;;;16.00;99.90;;;;;;6720918;88;20209;-77
2021/06/29 16:54:40;;;;;;;3.65;2.05;;;16.20;99.90;;;;;;6722398;88;20198;-76
2021/06/29 17:04:40;;;;;;;4.17;1.97;;;16.30;99.90;;;;;;6716506;88;20733;-75
2021/06/29 17:14:44;;;;;;;3.35;2.10;;;16.40;99.90;;;;;;6711724;88;20207;-75
2021/06/29 17:24:47;;;;;;;3.15;1.95;;;16.50;99.90;;;;;;6711812;88;20201;-75
2021/06/29 17:34:47;;;;;;;4.68;2.30;;;16.50;99.90;;;;;;6724605;88;20216;-75
2021/06/29 17:44:48;;;;;;;4.10;2.25;;;16.40;99.90;;;;;;6731505;88;20285;-74
2021/06/29 17:54:49;;;;;;;6.03;2.50;;;16.40;99.90;;;;;;6721260;88;20389;-74
2021/06/29 18:04:49;;;;;;;4.68;2.83;;;16.40;99.90;;;;;;6734907;88;20673;-75
2021/06/29 18:14:54;;;;;;;3.30;2.10;;;16.60;99.90;;;;;;6728895;88;20236;-76
2021/06/29 18:24:54;;;;;;;5.10;2.33;;;16.70;99.90;;;;;;6724421;88;20443;-75
2021/06/29 18:34:55;;;;;;;4.28;2.62;;;16.80;99.90;;;;;;6718566;88;20210;-76
2021/06/29 18:44:55;;;;;;;4.60;3.03;;;16.60;99.90;;;;;;6725448;88;20214;-76
2021/06/29 18:54:56;;;;;;;4.68;2.85;;;17.00;99.90;;;;;;6733693;88;20696;-77
2021/06/29 19:04:57;;;;;;;4.82;2.83;;;16.90;99.90;;;;;;6729905;88;20179;-76
2021/06/29 19:14:58;;;;;;;6.00;3.10;;;16.80;99.90;;;;;;6727207;88;20205;-76
2021/06/29 19:24:58;;;;;;;4.45;2.75;;;16.80;99.90;;;;;;6727962;88;20211;-76
2021/06/29 19:34:59;;;;;;;4.82;2.90;;;16.80;99.90;;;;;;6732338;88;20296;-77
2021/06/29 19:45:00;;;;;;;5.68;2.83;;;16.80;99.90;;;;;;6725655;88;20202;-76
2021/06/29 19:55:01;;;;;;;4.78;3.15;;;16.90;99.90;;;;;;6727493;88;20197;-77
2021/06/29 20:05:03;;;;;;;5.47;3.00;;;16.80;99.90;;;;;;6727143;88;20238;-77
2021/06/29 20:15:08;;;;;;;6.00;2.67;;;16.80;99.90;;;;;;6719862;77;20176;-77
2021/06/29 20:25:11;;;;;;;4.32;2.83;;;16.80;99.90;;;;;;6669894;88;20200;-78
2021/06/29 20:35:12;;;;;;;4.32;3.10;;;16.70;99.90;;;;;;6686107;88;20165;-78
2021/06/29 20:45:13;;;;;;;5.93;3.10;;;16.80;99.90;;;;;;6680082;88;20209;-78
2021/06/29 20:55:14;;;;;;;5.40;3.25;;;16.90;99.90;;;;;;6670283;88;20183;-78
2021/06/29 21:05:15;;;;;;;5.20;3.27;;;17.00;99.90;;;;;;6691192;88;20338;-78
2021/06/29 21:15:16;;;;;;;4.40;2.92;;;16.90;99.90;;;;;;6674008;88;20529;-77
2021/06/29 21:25:16;;;;;;;3.60;2.58;;;16.90;99.90;;;;;;6665820;88;20345;-78
2021/06/29 21:35:18;;;;;;;4.47;2.78;;;16.90;99.90;;;;;;6663859;88;20661;-79
2021/06/29 21:45:19;;;;;;;4.30;2.80;;;16.80;99.90;;;;;;6677972;88;20236;-77
2021/06/29 21:55:19;;;;;;;4.00;2.60;;;17.00;99.90;;;;;;6671890;88;20233;-78
2021/06/29 22:05:20;;;;;;;6.35;3.28;;;16.80;99.90;;;;;;6671284;88;20613;-77
2021/06/29 22:15:20;;;;;;;5.37;3.22;;;16.90;99.90;;;;;;6672224;88;20226;-78
2021/06/29 22:25:21;;;;;;;3.12;2.22;;;16.70;99.90;;;;;;6673977;88;20186;-77
2021/06/29 22:35:22;;;;;;;3.17;2.20;;;16.30;99.90;;;;;;6698758;88;20248;-77
2021/06/29 22:45:24;;;;;;;3.05;2.12;;;16.10;99.90;;;;;;6668735;89;20233;-77
2021/06/29 22:55:26;;;;;;;4.32;1.80;;;16.10;99.90;;;;;;6671384;88;20292;-77
2021/06/29 23:05:27;;;;;;;3.03;2.00;;;16.00;99.90;;;;;;6661518;88;20196;-78
2021/06/29 23:15:28;;;;;;;3.15;1.80;;;16.10;99.90;;;;;;6670158;89;20239;-78
2021/06/29 23:25:28;;;;;;;2.73;1.80;;;16.20;99.90;;;;;;6666204;88;20187;-77
2021/06/29 23:35:32;;;;;;;3.47;2.22;;;16.20;99.90;;;;;;6673338;88;20186;-77
2021/06/29 23:45:32;;;;;;;2.87;1.87;;;16.00;99.90;;;;;;6670173;88;20687;-78
2021/06/29 23:55:33;;;;;;;3.10;2.05;;;16.10;99.90;;;;;;6672222;88;20177;-77
